sensor_id;sensor_type;location;lat;lon;timestamp;pressure;altitude;pressure_sealevel;temperature;humidity
43480;BME280;29067;35.492;-97.520;2022-09-03T00:00:34;97027.19;;;30.41;39.75
43480;BME280;29067;35.492;-97.520;2022-09-03T00:03:07;97028.27;;;29.01;41.66
43480;BME280;29067;35.492;-97.520;2022-09-03T00:05:40;97031.02;;;29.15;41.78
43480;BME280;29067;35.492;-97.520;2022-09-03T00:08:15;97030.01;;;31.52;39.78
43480;BME280;29067;35.492;-97.520;2022-09-03T00:10:51;97032.28;;;30.95;39.41
43480;BME280;29067;35.492;-97.520;2022-09-03T00:13:23;97039.63;;;28.65;42.60
43480;BME280;29067;35.492;-97.520;2022-09-03T00:15:56;97043.06;;;26.79;46.13
43480;BME280;29067;35.492;-97.520;2022-09-03T00:18:27;97039.49;;;28.83;43.76
43480;BME280;29067;35.492;-97.520;2022-09-03T00:21:02;97038.65;;;28.86;43.54
43480;BME280;29067;35.492;-97.520;2022-09-03T00:23:33;97041.82;;;28.80;44.05
43480;BME280;29067;35.492;-97.520;2022-09-03T00:26:14;97049.04;;;26.38;47.12
43480;BME280;29067;35.492;-97.520;2022-09-03T00:28:46;97047.09;;;28.88;44.82
43480;BME280;29067;35.492;-97.520;2022-09-03T00:31:19;97049.03;;;28.07;45.64
43480;BME280;29067;35.492;-97.520;2022-09-03T00:33:53;97059.55;;;28.84;45.78
43480;BME280;29067;35.492;-97.520;2022-09-03T00:36:26;97067.02;;;29.13;45.27
43480;BME280;29067;35.492;-97.520;2022-09-03T00:38:57;97080.20;;;25.83;49.52
43480;BME280;29067;35.492;-97.520;2022-09-03T00:41:33;97078.49;;;27.80;46.92
43480;BME280;29067;35.492;-97.520;2022-09-03T00:44:18;97074.09;;;29.32;45.34
43480;BME280;29067;35.492;-97.520;2022-09-03T00:46:54;97072.47;;;28.20;47.34
43480;BME280;29067;35.492;-97.520;2022-09-03T00:49:31;97071.08;;;26.60;50.40
43480;BME280;29067;35.492;-97.520;2022-09-03T00:52:10;97071.06;;;26.34;52.82
43480;BME280;29067;35.492;-97.520;2022-09-03T00:54:47;97071.24;;;27.42;51.67
43480;BME280;29067;35.492;-97.520;2022-09-03T00:57:27;97071.63;;;27.36;52.26
43480;BME280;29067;35.492;-97.520;2022-09-03T01:00:03;97075.53;;;26.61;54.17
43480;BME280;29067;35.492;-97.520;2022-09-03T01:02:40;97078.40;;;28.26;51.72
43480;BME280;29067;35.492;-97.520;2022-09-03T01:05:19;97084.70;;;27.84;51.10
43480;BME280;29067;35.492;-97.520;2022-09-03T01:07:57;97086.98;;;28.48;50.25
43480;BME280;29067;35.492;-97.520;2022-09-03T01:10:34;97087.60;;;28.24;51.88
43480;BME280;29067;35.492;-97.520;2022-09-03T01:13:11;97089.97;;;25.93;57.19
43480;BME280;29067;35.492;-97.520;2022-09-03T01:15:47;97094.85;;;27.39;55.33
43480;BME280;29067;35.492;-97.520;2022-09-03T01:18:24;97100.39;;;26.16;58.43
43480;BME280;29067;35.492;-97.520;2022-09-03T01:21:12;97099.32;;;27.10;56.91
43480;BME280;29067;35.492;-97.520;2022-09-03T01:23:57;97103.65;;;27.50;56.05
43480;BME280;29067;35.492;-97.520;2022-09-03T01:26:44;97111.48;;;26.32;58.39
43480;BME280;29067;35.492;-97.520;2022-09-03T01:29:21;97117.77;;;25.28;61.67
43480;BME280;29067;35.492;-97.520;2022-09-03T01:32:00;97115.82;;;27.03;58.07
43480;BME280;29067;35.492;-97.520;2022-09-03T01:34:40;97122.54;;;26.74;59.00
43480;BME280;29067;35.492;-97.520;2022-09-03T01:37:16;97125.09;;;27.23;57.60
43480;BME280;29067;35.492;-97.520;2022-09-03T01:39:56;97134.54;;;24.94;64.18
43480;BME280;29067;35.492;-97.520;2022-09-03T01:42:34;97132.60;;;28.29;55.80
43480;BME280;29067;35.492;-97.520;2022-09-03T01:45:20;97134.85;;;27.43;57.73
43480;BME280;29067;35.492;-97.520;2022-09-03T01:48:05;97137.13;;;27.33;57.91
43480;BME280;29067;35.492;-97.520;2022-09-03T01:50:43;97150.82;;;26.06;59.82
43480;BME280;29067;35.492;-97.520;2022-09-03T01:53:22;97154.54;;;26.24;61.18
43480;BME280;29067;35.492;-97.520;2022-09-03T01:56:05;97165.63;;;24.79;66.70
43480;BME280;29067;35.492;-97.520;2022-09-03T01:58:41;97169.88;;;26.46;63.39
43480;BME280;29067;35.492;-97.520;2022-09-03T02:01:16;97178.47;;;25.43;66.45
43480;BME280;29067;35.492;-97.520;2022-09-03T02:03:47;97182.66;;;26.90;62.53
43480;BME280;29067;35.492;-97.520;2022-09-03T02:06:16;97191.75;;;26.01;64.75
43480;BME280;29067;35.492;-97.520;2022-09-03T02:08:44;97197.58;;;26.29;63.91
43480;BME280;29067;35.492;-97.520;2022-09-03T02:11:11;97202.18;;;25.69;63.96
43480;BME280;29067;35.492;-97.520;2022-09-03T02:13:41;97204.01;;;26.53;63.14
43480;BME280;29067;35.492;-97.520;2022-09-03T02:16:13;97211.75;;;26.13;64.25
43480;BME280;29067;35.492;-97.520;2022-09-03T02:18:43;97218.29;;;25.27;65.67
43480;BME280;29067;35.492;-97.520;2022-09-03T02:21:15;97227.01;;;26.33;61.75
43480;BME280;29067;35.492;-97.520;2022-09-03T02:23:44;97238.49;;;26.17;62.99
43480;BME280;29067;35.492;-97.520;2022-09-03T02:26:15;97246.45;;;25.37;63.18
43480;BME280;29067;35.492;-97.520;2022-09-03T02:28:45;97254.32;;;25.33;64.63
43480;BME280;29067;35.492;-97.520;2022-09-03T02:31:13;97264.75;;;24.67;65.06
43480;BME280;29067;35.492;-97.520;2022-09-03T02:33:43;97268.27;;;25.68;63.73
43480;BME280;29067;35.492;-97.520;2022-09-03T02:36:14;97275.12;;;26.18;62.09
43480;BME280;29067;35.492;-97.520;2022-09-03T02:38:44;97281.35;;;25.46;61.86
43480;BME280;29067;35.492;-97.520;2022-09-03T02:41:13;97288.19;;;25.06;62.78
43480;BME280;29067;35.492;-97.520;2022-09-03T02:43:44;97299.19;;;25.28;60.63
43480;BME280;29067;35.492;-97.520;2022-09-03T02:46:17;97314.80;;;27.56;56.08
43480;BME280;29067;35.492;-97.520;2022-09-03T02:48:47;97323.12;;;26.77;56.89
43480;BME280;29067;35.492;-97.520;2022-09-03T02:51:15;97326.96;;;27.12;55.11
43480;BME280;29067;35.492;-97.520;2022-09-03T02:53:44;97342.96;;;28.19;54.58
43480;BME280;29067;35.492;-97.520;2022-09-03T02:56:12;97355.25;;;26.24;58.03
43480;BME280;29067;35.492;-97.520;2022-09-03T02:58:40;97357.79;;;27.03;55.63
43480;BME280;29067;35.492;-97.520;2022-09-03T03:01:08;97362.93;;;25.90;57.11
43480;BME280;29067;35.492;-97.520;2022-09-03T03:03:35;97373.82;;;25.97;58.16
43480;BME280;29067;35.492;-97.520;2022-09-03T03:06:04;97382.66;;;26.22;56.25
43480;BME280;29067;35.492;-97.520;2022-09-03T03:08:33;97388.44;;;25.51;57.00
43480;BME280;29067;35.492;-97.520;2022-09-03T03:11:00;97392.03;;;26.22;57.98
43480;BME280;29067;35.492;-97.520;2022-09-03T03:13:30;97397.10;;;27.80;54.80
43480;BME280;29067;35.492;-97.520;2022-09-03T03:16:00;97402.19;;;27.26;54.01
43480;BME280;29067;35.492;-97.520;2022-09-03T03:18:28;97401.03;;;26.48;55.05
43480;BME280;29067;35.492;-97.520;2022-09-03T03:20:56;97406.74;;;25.32;56.74
43480;BME280;29067;35.492;-97.520;2022-09-03T03:23:25;97412.80;;;26.17;56.46
43480;BME280;29067;35.492;-97.520;2022-09-03T03:25:53;97415.22;;;25.32;58.87
43480;BME280;29067;35.492;-97.520;2022-09-03T03:28:20;97410.87;;;26.98;55.76
43480;BME280;29067;35.492;-97.520;2022-09-03T03:30:48;97408.73;;;25.92;58.12
43480;BME280;29067;35.492;-97.520;2022-09-03T03:33:15;97410.87;;;24.62;60.89
43480;BME280;29067;35.492;-97.520;2022-09-03T03:35:43;97408.25;;;26.06;59.26
43480;BME280;29067;35.492;-97.520;2022-09-03T03:38:10;97411.58;;;27.76;54.61
43480;BME280;29067;35.492;-97.520;2022-09-03T03:40:38;97412.02;;;26.77;55.37
43480;BME280;29067;35.492;-97.520;2022-09-03T03:43:06;97416.79;;;27.81;52.99
43480;BME280;29067;35.492;-97.520;2022-09-03T03:45:33;97415.34;;;28.18;52.15
43480;BME280;29067;35.492;-97.520;2022-09-03T03:48:01;97419.02;;;26.76;54.49
43480;BME280;29067;35.492;-97.520;2022-09-03T03:50:29;97423.97;;;25.95;55.89
43480;BME280;29067;35.492;-97.520;2022-09-03T03:52:59;97426.56;;;25.86;56.91
43480;BME280;29067;35.492;-97.520;2022-09-03T03:55:27;97429.00;;;27.24;54.50
43480;BME280;29067;35.492;-97.520;2022-09-03T03:57:57;97433.36;;;25.17;58.07
43480;BME280;29067;35.492;-97.520;2022-09-03T04:00:24;97431.70;;;26.38;55.67
43480;BME280;29067;35.492;-97.520;2022-09-03T04:02:52;97434.27;;;27.56;53.25
43480;BME280;29067;35.492;-97.520;2022-09-03T04:05:19;97432.12;;;28.29;52.69
43480;BME280;29067;35.492;-97.520;2022-09-03T04:07:48;97433.46;;;29.40;50.36
43480;BME280;29067;35.492;-97.520;2022-09-03T04:10:15;97439.15;;;28.38;51.61
43480;BME280;29067;35.492;-97.520;2022-09-03T04:12:44;97440.60;;;25.71;55.09
43480;BME280;29067;35.492;-97.520;2022-09-03T04:15:11;97438.79;;;26.11;56.80
43480;BME280;29067;35.492;-97.520;2022-09-03T04:17:39;97435.97;;;27.36;53.84
43480;BME280;29067;35.492;-97.520;2022-09-03T04:20:07;97439.14;;;27.81;52.87
43480;BME280;29067;35.492;-97.520;2022-09-03T04:22:36;97444.61;;;27.61;52.75
43480;BME280;29067;35.492;-97.520;2022-09-03T04:25:04;97443.74;;;27.35;53.06
43480;BME280;29067;35.492;-97.520;2022-09-03T04:27:32;97444.04;;;26.72;54.54
43480;BME280;29067;35.492;-97.520;2022-09-03T04:30:00;97451.48;;;27.58;52.96
43480;BME280;29067;35.492;-97.520;2022-09-03T04:32:28;97454.71;;;25.81;58.21
43480;BME280;29067;35.492;-97.520;2022-09-03T04:34:56;97454.48;;;26.99;55.33
43480;BME280;29067;35.492;-97.520;2022-09-03T04:37:24;97454.98;;;28.04;53.40
43480;BME280;29067;35.492;-97.520;2022-09-03T04:39:52;97453.36;;;28.46;52.49
43480;BME280;29067;35.492;-97.520;2022-09-03T04:42:19;97456.01;;;28.09;51.92
43480;BME280;29067;35.492;-97.520;2022-09-03T04:44:47;97463.79;;;27.35;52.76
43480;BME280;29067;35.492;-97.520;2022-09-03T04:47:14;97459.40;;;26.71;55.01
43480;BME280;29067;35.492;-97.520;2022-09-03T04:49:42;97460.72;;;27.36;53.19
43480;BME280;29067;35.492;-97.520;2022-09-03T04:52:09;97462.76;;;27.08;54.89
43480;BME280;29067;35.492;-97.520;2022-09-03T04:54:37;97467.30;;;25.82;58.55
43480;BME280;29067;35.492;-97.520;2022-09-03T04:57:04;97467.01;;;27.31;55.65
43480;BME280;29067;35.492;-97.520;2022-09-03T04:59:32;97471.23;;;26.99;56.36
43480;BME280;29067;35.492;-97.520;2022-09-03T05:01:59;97471.85;;;28.98;52.64
43480;BME280;29067;35.492;-97.520;2022-09-03T05:04:27;97472.20;;;29.02;51.61
43480;BME280;29067;35.492;-97.520;2022-09-03T05:06:54;97472.18;;;28.95;52.55
43480;BME280;29067;35.492;-97.520;2022-09-03T05:09:22;97474.82;;;26.86;55.09
43480;BME280;29067;35.492;-97.520;2022-09-03T05:11:49;97471.19;;;28.57;51.99
43480;BME280;29067;35.492;-97.520;2022-09-03T05:14:17;97470.09;;;29.01;51.88
43480;BME280;29067;35.492;-97.520;2022-09-03T05:16:44;97468.88;;;28.96;51.36
43480;BME280;29067;35.492;-97.520;2022-09-03T05:19:12;97466.04;;;28.93;50.50
43480;BME280;29067;35.492;-97.520;2022-09-03T05:21:39;97467.50;;;29.67;49.70
43480;BME280;29067;35.492;-97.520;2022-09-03T05:24:07;97468.56;;;29.77;49.73
43480;BME280;29067;35.492;-97.520;2022-09-03T05:26:37;97468.62;;;29.66;49.93
43480;BME280;29067;35.492;-97.520;2022-09-03T05:29:06;97467.41;;;30.07;49.16
43480;BME280;29067;35.492;-97.520;2022-09-03T05:31:36;97468.30;;;29.15;50.12
43480;BME280;29067;35.492;-97.520;2022-09-03T05:34:05;97471.31;;;29.40;50.48
43480;BME280;29067;35.492;-97.520;2022-09-03T05:36:34;97470.43;;;29.39;50.62
43480;BME280;29067;35.492;-97.520;2022-09-03T05:39:03;97474.39;;;28.59;52.22
43480;BME280;29067;35.492;-97.520;2022-09-03T05:41:32;97471.54;;;29.69;51.15
43480;BME280;29067;35.492;-97.520;2022-09-03T05:44:01;97472.83;;;29.22;52.19
43480;BME280;29067;35.492;-97.520;2022-09-03T05:46:30;97474.79;;;29.15;51.48
43480;BME280;29067;35.492;-97.520;2022-09-03T05:48:59;97477.90;;;29.14;51.43
43480;BME280;29067;35.492;-97.520;2022-09-03T05:51:28;97480.29;;;29.76;51.64
43480;BME280;29067;35.492;-97.520;2022-09-03T05:53:57;97481.69;;;28.04;53.17
43480;BME280;29067;35.492;-97.520;2022-09-03T05:56:26;97479.31;;;27.27;56.70
43480;BME280;29067;35.492;-97.520;2022-09-03T05:58:56;97479.15;;;27.54;56.11
43480;BME280;29067;35.492;-97.520;2022-09-03T06:01:26;97481.00;;;27.62;54.91
43480;BME280;29067;35.492;-97.520;2022-09-03T06:03:56;97483.20;;;26.46;57.69
43480;BME280;29067;35.492;-97.520;2022-09-03T06:06:26;97486.43;;;25.17;60.90
43480;BME280;29067;35.492;-97.520;2022-09-03T06:08:55;97481.15;;;26.57;57.49
43480;BME280;29067;35.492;-97.520;2022-09-03T06:11:24;97483.34;;;25.63;59.60
43480;BME280;29067;35.492;-97.520;2022-09-03T06:13:52;97478.27;;;25.20;60.32
43480;BME280;29067;35.492;-97.520;2022-09-03T06:16:21;97478.64;;;25.38;60.46
43480;BME280;29067;35.492;-97.520;2022-09-03T06:18:48;97482.84;;;23.99;62.46
43480;BME280;29067;35.492;-97.520;2022-09-03T06:21:17;97482.05;;;25.30;62.38
43480;BME280;29067;35.492;-97.520;2022-09-03T06:23:48;97484.65;;;25.41;61.76
43480;BME280;29067;35.492;-97.520;2022-09-03T06:26:18;97487.66;;;24.04;64.82
43480;BME280;29067;35.492;-97.520;2022-09-03T06:28:47;97492.64;;;25.24;61.91
43480;BME280;29067;35.492;-97.520;2022-09-03T06:31:17;97496.96;;;25.04;63.40
43480;BME280;29067;35.492;-97.520;2022-09-03T06:33:46;97497.13;;;25.46;60.77
43480;BME280;29067;35.492;-97.520;2022-09-03T06:36:16;97496.26;;;24.55;62.89
43480;BME280;29067;35.492;-97.520;2022-09-03T06:38:45;97491.58;;;24.87;61.79
43480;BME280;29067;35.492;-97.520;2022-09-03T06:41:14;97492.99;;;24.21;67.28
43480;BME280;29067;35.492;-97.520;2022-09-03T06:43:42;97491.51;;;23.97;66.33
43480;BME280;29067;35.492;-97.520;2022-09-03T06:46:12;97495.15;;;26.56;61.06
43480;BME280;29067;35.492;-97.520;2022-09-03T06:48:41;97495.81;;;27.07;57.46
43480;BME280;29067;35.492;-97.520;2022-09-03T06:51:11;97490.62;;;27.26;56.63
43480;BME280;29067;35.492;-97.520;2022-09-03T06:53:42;97489.71;;;27.54;55.89
43480;BME280;29067;35.492;-97.520;2022-09-03T06:56:12;97491.13;;;27.73;55.91
43480;BME280;29067;35.492;-97.520;2022-09-03T06:58:42;97487.90;;;27.05;56.39
43480;BME280;29067;35.492;-97.520;2022-09-03T07:01:12;97483.01;;;27.78;54.76
43480;BME280;29067;35.492;-97.520;2022-09-03T07:03:42;97480.53;;;27.29;55.49
43480;BME280;29067;35.492;-97.520;2022-09-03T07:06:12;97481.57;;;26.17;56.37
43480;BME280;29067;35.492;-97.520;2022-09-03T07:08:41;97480.85;;;25.72;59.11
43480;BME280;29067;35.492;-97.520;2022-09-03T07:11:12;97479.69;;;25.67;58.70
43480;BME280;29067;35.492;-97.520;2022-09-03T07:13:42;97483.20;;;26.82;57.00
43480;BME280;29067;35.492;-97.520;2022-09-03T07:16:13;97483.63;;;27.18;57.66
43480;BME280;29067;35.492;-97.520;2022-09-03T07:18:40;97483.15;;;27.39;56.11
43480;BME280;29067;35.492;-97.520;2022-09-03T07:21:10;97485.10;;;27.72;55.10
43480;BME280;29067;35.492;-97.520;2022-09-03T07:23:39;97486.75;;;27.86;53.59
43480;BME280;29067;35.492;-97.520;2022-09-03T07:26:09;97490.14;;;27.76;54.01
43480;BME280;29067;35.492;-97.520;2022-09-03T07:28:39;97487.89;;;28.01;54.44
43480;BME280;29067;35.492;-97.520;2022-09-03T07:31:10;97487.58;;;27.69;54.16
43480;BME280;29067;35.492;-97.520;2022-09-03T07:33:39;97486.31;;;28.41;53.52
43480;BME280;29067;35.492;-97.520;2022-09-03T07:36:09;97484.89;;;28.31;53.46
43480;BME280;29067;35.492;-97.520;2022-09-03T07:38:38;97483.17;;;28.67;52.75
43480;BME280;29067;35.492;-97.520;2022-09-03T07:41:07;97478.27;;;27.15;53.97
43480;BME280;29067;35.492;-97.520;2022-09-03T07:43:37;97476.37;;;27.79;53.67
43480;BME280;29067;35.492;-97.520;2022-09-03T07:46:06;97478.70;;;26.97;55.30
43480;BME280;29067;35.492;-97.520;2022-09-03T07:48:34;97479.98;;;26.43;57.30
43480;BME280;29067;35.492;-97.520;2022-09-03T07:51:02;97479.61;;;26.47;56.00
43480;BME280;29067;35.492;-97.520;2022-09-03T07:53:30;97479.53;;;27.97;54.86
43480;BME280;29067;35.492;-97.520;2022-09-03T07:56:02;97473.04;;;27.46;54.35
43480;BME280;29067;35.492;-97.520;2022-09-03T07:58:30;97471.72;;;27.03;54.57
43480;BME280;29067;35.492;-97.520;2022-09-03T08:01:02;97470.11;;;28.00;54.67
43480;BME280;29067;35.492;-97.520;2022-09-03T08:03:30;97470.56;;;27.01;55.40
43480;BME280;29067;35.492;-97.520;2022-09-03T08:06:00;97469.15;;;26.93;55.83
43480;BME280;29067;35.492;-97.520;2022-09-03T08:08:29;97472.83;;;27.11;55.59
43480;BME280;29067;35.492;-97.520;2022-09-03T08:11:04;97475.43;;;27.03;55.04
43480;BME280;29067;35.492;-97.520;2022-09-03T08:13:32;97479.53;;;26.94;55.59
43480;BME280;29067;35.492;-97.520;2022-09-03T08:16:00;97481.40;;;26.49;56.37
43480;BME280;29067;35.492;-97.520;2022-09-03T08:18:27;97485.66;;;27.62;56.01
43480;BME280;29067;35.492;-97.520;2022-09-03T08:20:58;97485.20;;;28.07;54.87
43480;BME280;29067;35.492;-97.520;2022-09-03T08:23:27;97484.51;;;26.95;55.15
43480;BME280;29067;35.492;-97.520;2022-09-03T08:25:58;97484.14;;;27.32;54.36
43480;BME280;29067;35.492;-97.520;2022-09-03T08:28:26;97484.08;;;27.73;54.19
43480;BME280;29067;35.492;-97.520;2022-09-03T08:30:54;97481.75;;;27.35;54.28
43480;BME280;29067;35.492;-97.520;2022-09-03T08:33:22;97480.81;;;27.85;55.24
43480;BME280;29067;35.492;-97.520;2022-09-03T08:35:52;97479.42;;;28.19;54.62
43480;BME280;29067;35.492;-97.520;2022-09-03T08:38:20;97479.97;;;26.42;57.48
43480;BME280;29067;35.492;-97.520;2022-09-03T08:40:47;97476.46;;;27.91;54.96
43480;BME280;29067;35.492;-97.520;2022-09-03T08:43:16;97475.59;;;25.61;58.38
43480;BME280;29067;35.492;-97.520;2022-09-03T08:45:45;97477.66;;;27.04;57.19
43480;BME280;29067;35.492;-97.520;2022-09-03T08:48:15;97477.88;;;27.06;55.67
43480;BME280;29067;35.492;-97.520;2022-09-03T08:50:49;97480.60;;;27.22;55.45
43480;BME280;29067;35.492;-97.520;2022-09-03T08:53:21;97485.25;;;26.41;59.13
43480;BME280;29067;35.492;-97.520;2022-09-03T08:55:58;97486.93;;;27.00;57.84
43480;BME280;29067;35.492;-97.520;2022-09-03T08:58:31;97486.76;;;25.57;61.44
43480;BME280;29067;35.492;-97.520;2022-09-03T09:01:05;97485.27;;;26.94;57.95
43480;BME280;29067;35.492;-97.520;2022-09-03T09:03:42;97484.27;;;26.85;56.60
43480;BME280;29067;35.492;-97.520;2022-09-03T09:06:22;97481.03;;;26.84;56.89
43480;BME280;29067;35.492;-97.520;2022-09-03T09:09:02;97482.54;;;27.16;55.74
43480;BME280;29067;35.492;-97.520;2022-09-03T09:11:42;97481.43;;;26.95;57.65
43480;BME280;29067;35.492;-97.520;2022-09-03T09:14:18;97480.99;;;27.10;57.47
43480;BME280;29067;35.492;-97.520;2022-09-03T09:16:58;97483.35;;;27.15;56.62
43480;BME280;29067;35.492;-97.520;2022-09-03T09:19:39;97484.46;;;26.78;56.72
43480;BME280;29067;35.492;-97.520;2022-09-03T09:22:10;97487.60;;;26.79;57.62
43480;BME280;29067;35.492;-97.520;2022-09-03T09:24:44;97483.84;;;26.29;56.44
43480;BME280;29067;35.492;-97.520;2022-09-03T09:27:14;97481.79;;;26.73;56.56
43480;BME280;29067;35.492;-97.520;2022-09-03T09:29:47;97483.05;;;27.77;55.74
43480;BME280;29067;35.492;-97.520;2022-09-03T09:32:17;97483.04;;;26.85;58.04
43480;BME280;29067;35.492;-97.520;2022-09-03T09:34:46;97484.72;;;26.88;56.42
43480;BME280;29067;35.492;-97.520;2022-09-03T09:37:15;97482.64;;;27.07;57.20
43480;BME280;29067;35.492;-97.520;2022-09-03T09:39:55;97482.70;;;26.89;57.70
43480;BME280;29067;35.492;-97.520;2022-09-03T09:42:24;97481.58;;;27.33;57.78
43480;BME280;29067;35.492;-97.520;2022-09-03T09:44:53;97478.81;;;27.04;57.49
43480;BME280;29067;35.492;-97.520;2022-09-03T09:47:24;97478.81;;;26.75;58.45
43480;BME280;29067;35.492;-97.520;2022-09-03T09:49:54;97483.54;;;24.03;65.25
43480;BME280;29067;35.492;-97.520;2022-09-03T09:52:24;97488.15;;;23.74;68.12
43480;BME280;29067;35.492;-97.520;2022-09-03T09:54:53;97484.31;;;25.90;62.81
43480;BME280;29067;35.492;-97.520;2022-09-03T09:57:32;97483.39;;;26.17;60.43
43480;BME280;29067;35.492;-97.520;2022-09-03T10:00:04;97481.31;;;26.31;60.03
43480;BME280;29067;35.492;-97.520;2022-09-03T10:02:34;97482.65;;;26.33;60.99
43480;BME280;29067;35.492;-97.520;2022-09-03T10:05:13;97484.85;;;26.15;60.27
43480;BME280;29067;35.492;-97.520;2022-09-03T10:07:41;97482.73;;;27.00;58.08
43480;BME280;29067;35.492;-97.520;2022-09-03T10:10:16;97485.28;;;26.57;58.75
43480;BME280;29067;35.492;-97.520;2022-09-03T10:12:49;97485.63;;;26.97;57.69
43480;BME280;29067;35.492;-97.520;2022-09-03T10:15:23;97481.75;;;26.20;58.14
43480;BME280;29067;35.492;-97.520;2022-09-03T10:17:59;97480.30;;;26.19;59.14
43480;BME280;29067;35.492;-97.520;2022-09-03T10:20:35;97480.80;;;26.61;58.25
43480;BME280;29067;35.492;-97.520;2022-09-03T10:23:12;97483.63;;;25.79;60.26
43480;BME280;29067;35.492;-97.520;2022-09-03T10:25:49;97482.76;;;25.98;60.22
43480;BME280;29067;35.492;-97.520;2022-09-03T10:28:21;97484.04;;;26.45;58.67
43480;BME280;29067;35.492;-97.520;2022-09-03T10:31:02;97486.72;;;25.83;60.16
43480;BME280;29067;35.492;-97.520;2022-09-03T10:33:39;97489.73;;;26.11;58.19
43480;BME280;29067;35.492;-97.520;2022-09-03T10:36:17;97492.61;;;25.97;59.20
43480;BME280;29067;35.492;-97.520;2022-09-03T10:38:49;97492.96;;;26.21;58.69
43480;BME280;29067;35.492;-97.520;2022-09-03T10:41:27;97498.04;;;25.79;60.55
43480;BME280;29067;35.492;-97.520;2022-09-03T10:44:17;97497.05;;;25.70;59.86
43480;BME280;29067;35.492;-97.520;2022-09-03T10:46:59;97493.58;;;26.37;58.40
43480;BME280;29067;35.492;-97.520;2022-09-03T10:49:37;97494.92;;;26.04;58.78
43480;BME280;29067;35.492;-97.520;2022-09-03T10:52:11;97495.97;;;27.42;57.68
43480;BME280;29067;35.492;-97.520;2022-09-03T10:54:50;97497.46;;;26.72;58.11
43480;BME280;29067;35.492;-97.520;2022-09-03T10:57:32;97500.89;;;26.06;59.25
43480;BME280;29067;35.492;-97.520;2022-09-03T11:03:15;97503.74;;;26.36;59.51
43480;BME280;29067;35.492;-97.520;2022-09-03T11:05:57;97503.18;;;25.96;59.27
43480;BME280;29067;35.492;-97.520;2022-09-03T11:08:30;97503.16;;;26.57;58.71
43480;BME280;29067;35.492;-97.520;2022-09-03T11:11:08;97504.93;;;25.20;61.58
43480;BME280;29067;35.492;-97.520;2022-09-03T11:13:39;97503.69;;;25.55;61.42
43480;BME280;29067;35.492;-97.520;2022-09-03T11:16:15;97508.73;;;25.83;62.07
43480;BME280;29067;35.492;-97.520;2022-09-03T11:18:47;97510.26;;;26.00;61.53
43480;BME280;29067;35.492;-97.520;2022-09-03T11:21:19;97512.92;;;25.09;64.18
43480;BME280;29067;35.492;-97.520;2022-09-03T11:23:53;97511.62;;;25.38;62.19
43480;BME280;29067;35.492;-97.520;2022-09-03T11:26:25;97513.84;;;24.77;65.35
43480;BME280;29067;35.492;-97.520;2022-09-03T11:28:58;97518.57;;;24.52;66.05
43480;BME280;29067;35.492;-97.520;2022-09-03T11:31:36;97520.49;;;24.61;65.61
43480;BME280;29067;35.492;-97.520;2022-09-03T11:34:07;97521.10;;;25.01;64.42
43480;BME280;29067;35.492;-97.520;2022-09-03T11:36:40;97523.69;;;25.60;62.59
43480;BME280;29067;35.492;-97.520;2022-09-03T11:39:19;97522.72;;;25.02;64.70
43480;BME280;29067;35.492;-97.520;2022-09-03T11:41:57;97527.52;;;25.63;63.06
43480;BME280;29067;35.492;-97.520;2022-09-03T11:44:35;97534.18;;;25.46;63.46
43480;BME280;29067;35.492;-97.520;2022-09-03T11:47:13;97542.99;;;23.34;69.80
43480;BME280;29067;35.492;-97.520;2022-09-03T11:49:46;97546.07;;;22.68;72.25
43480;BME280;29067;35.492;-97.520;2022-09-03T11:52:25;97541.83;;;24.74;66.01
43480;BME280;29067;35.492;-97.520;2022-09-03T11:54:54;97550.83;;;23.85;69.08
43480;BME280;29067;35.492;-97.520;2022-09-03T11:57:26;97554.69;;;23.87;68.10
43480;BME280;29067;35.492;-97.520;2022-09-03T12:00:06;97552.98;;;24.50;67.00
43480;BME280;29067;35.492;-97.520;2022-09-03T12:02:35;97551.16;;;24.93;64.34
43480;BME280;29067;35.492;-97.520;2022-09-03T12:05:19;97549.88;;;25.84;61.94
43480;BME280;29067;35.492;-97.520;2022-09-03T12:08:09;97554.05;;;25.33;63.58
43480;BME280;29067;35.492;-97.520;2022-09-03T12:10:48;97559.73;;;23.73;68.98
43480;BME280;29067;35.492;-97.520;2022-09-03T12:13:28;97559.65;;;24.07;67.57
43480;BME280;29067;35.492;-97.520;2022-09-03T12:16:22;97557.76;;;24.05;67.50
43480;BME280;29067;35.492;-97.520;2022-09-03T12:18:56;97562.28;;;23.87;71.69
43480;BME280;29067;35.492;-97.520;2022-09-03T12:21:27;97563.85;;;23.60;72.01
43480;BME280;29067;35.492;-97.520;2022-09-03T12:23:55;97565.61;;;24.40;67.73
43480;BME280;29067;35.492;-97.520;2022-09-03T12:26:24;97565.68;;;25.79;66.03
43480;BME280;29067;35.492;-97.520;2022-09-03T12:28:55;97574.13;;;23.82;69.01
43480;BME280;29067;35.492;-97.520;2022-09-03T12:31:24;97574.40;;;24.67;66.08
43480;BME280;29067;35.492;-97.520;2022-09-03T12:33:54;97571.94;;;25.09;64.79
43480;BME280;29067;35.492;-97.520;2022-09-03T12:36:23;97579.52;;;24.12;67.86
43480;BME280;29067;35.492;-97.520;2022-09-03T12:38:52;97577.82;;;25.55;64.00
43480;BME280;29067;35.492;-97.520;2022-09-03T12:41:23;97580.94;;;25.42;64.24
43480;BME280;29067;35.492;-97.520;2022-09-03T12:43:52;97588.00;;;24.85;64.98
43480;BME280;29067;35.492;-97.520;2022-09-03T12:46:23;97586.84;;;25.59;64.38
43480;BME280;29067;35.492;-97.520;2022-09-03T12:48:54;97590.92;;;26.22;62.32
43480;BME280;29067;35.492;-97.520;2022-09-03T12:51:23;97594.82;;;26.43;61.15
43480;BME280;29067;35.492;-97.520;2022-09-03T12:53:51;97597.15;;;25.80;60.13
43480;BME280;29067;35.492;-97.520;2022-09-03T12:56:20;97596.73;;;27.13;59.32
43480;BME280;29067;35.492;-97.520;2022-09-03T12:58:52;97600.26;;;26.60;58.01
43480;BME280;29067;35.492;-97.520;2022-09-03T13:01:25;97601.41;;;26.64;57.71
43480;BME280;29067;35.492;-97.520;2022-09-03T13:03:56;97601.98;;;27.05;56.21
43480;BME280;29067;35.492;-97.520;2022-09-03T13:06:32;97601.21;;;27.21;56.13